createdAt,value
2023-11-25T00:00:14.788Z,96502.68
2023-11-25T00:03:10.962Z,96499.81
2023-11-25T00:05:58.785Z,96495.91
2023-11-25T00:08:39.913Z,96493.58
2023-11-25T00:11:28.148Z,96492.27
2023-11-25T00:14:10.963Z,96485.24
2023-11-25T00:16:51.839Z,96485.55
2023-11-25T00:19:32.952Z,96484.66
2023-11-25T00:22:13.792Z,96492.00
2023-11-25T00:24:54.965Z,96498.44
2023-11-25T00:27:37.786Z,96501.83
2023-11-25T00:30:20.320Z,96505.52
2023-11-25T00:33:02.876Z,96506.77
2023-11-25T00:35:44.296Z,96507.93
2023-11-25T00:38:25.771Z,96502.66
2023-11-25T00:41:06.924Z,96503.27
2023-11-25T00:43:47.822Z,96504.35
2023-11-25T00:46:29.277Z,96499.86
2023-11-25T00:49:12.804Z,96502.55
2023-11-25T00:51:53.931Z,96500.20
2023-11-25T00:54:35.752Z,96497.02
2023-11-25T00:57:16.954Z,96486.33
2023-11-25T01:00:04.748Z,96475.08
2023-11-25T01:02:46.995Z,96469.37
2023-11-25T01:05:41.847Z,96469.38
2023-11-25T01:08:36.805Z,96463.97
2023-11-25T01:11:24.773Z,96460.39
2023-11-25T01:13:59.892Z,96459.35
2023-11-25T01:16:47.905Z,96457.50
2023-11-25T01:19:22.921Z,96453.10
2023-11-25T01:22:11.822Z,96450.54
2023-11-25T01:24:55.758Z,96446.70
2023-11-25T01:27:43.794Z,96448.88
2023-11-25T01:30:21.337Z,96452.59
2023-11-25T01:33:13.770Z,96454.40
2023-11-25T01:35:48.911Z,96458.83
2023-11-25T01:38:36.777Z,96467.42
2023-11-25T01:41:11.905Z,96470.49
2023-11-25T01:44:02.779Z,96466.25
2023-11-25T01:46:48.515Z,96466.70
2023-11-25T01:49:43.788Z,96461.00
2023-11-25T01:52:32.769Z,96453.04
2023-11-25T01:55:16.792Z,96454.24
2023-11-25T01:58:11.778Z,96449.56
2023-11-25T02:00:59.808Z,96449.79
2023-11-25T02:03:34.975Z,96455.03
2023-11-25T02:06:22.900Z,96447.89
2023-11-25T02:08:57.924Z,96442.02
2023-11-25T02:12:05.748Z,96438.40
2023-11-25T02:14:40.988Z,96433.03
2023-11-25T02:17:28.787Z,96428.58
2023-11-25T02:20:06.205Z,96430.04
2023-11-25T02:23:07.807Z,96428.83
2023-11-25T02:25:49.752Z,96419.78
2023-11-25T02:28:44.778Z,96426.98
2023-11-25T02:31:32.800Z,96426.14
2023-11-25T02:34:14.800Z,96427.59
2023-11-25T02:37:03.758Z,96430.20
2023-11-25T02:39:39.048Z,96436.45
2023-11-25T02:42:27.765Z,96437.25
2023-11-25T02:45:09.754Z,96435.88
2023-11-25T02:48:04.829Z,96434.86
2023-11-25T02:51:00.750Z,96437.48
2023-11-25T02:53:48.740Z,96447.83
2023-11-25T02:56:23.877Z,96446.29
2023-11-25T02:59:11.744Z,96449.13
2023-11-25T03:01:50.723Z,96450.86
2023-11-25T03:04:40.750Z,96448.23
2023-11-25T03:07:16.901Z,96455.62
2023-11-25T03:10:04.757Z,96458.23
2023-11-25T03:12:51.514Z,96457.06
2023-11-25T03:15:46.833Z,96461.58
2023-11-25T03:18:34.758Z,96462.71
2023-11-25T03:21:11.380Z,96463.42
2023-11-25T03:23:59.720Z,96462.19
2023-11-25T03:26:34.882Z,96462.90
2023-11-25T03:29:22.731Z,96467.48
2023-11-25T03:32:04.761Z,96470.59
2023-11-25T03:34:45.783Z,96471.92
2023-11-25T03:37:27.022Z,96470.20
2023-11-25T03:40:08.963Z,96472.05
2023-11-25T03:42:50.857Z,96474.75
2023-11-25T03:45:31.746Z,96476.14
2023-11-25T03:48:19.728Z,96475.37
2023-11-25T03:51:00.764Z,96479.31
2023-11-25T03:53:48.794Z,96475.79
2023-11-25T03:56:23.141Z,96466.30
2023-11-25T03:59:10.728Z,96470.50
2023-11-25T04:01:46.038Z,96474.61
2023-11-25T04:04:33.799Z,96474.88
2023-11-25T04:07:08.357Z,96470.88
2023-11-25T04:09:56.773Z,96472.50
2023-11-25T04:12:31.168Z,96478.07
2023-11-25T04:15:19.713Z,96479.95
2023-11-25T04:17:55.334Z,96481.39
2023-11-25T04:20:43.761Z,96474.32
2023-11-25T04:23:19.617Z,96472.23
2023-11-25T04:26:07.843Z,96471.52
2023-11-25T04:28:43.428Z,96473.86
2023-11-25T04:31:32.747Z,96475.73
2023-11-25T04:34:07.286Z,96479.08
2023-11-25T04:36:55.829Z,96481.40
2023-11-25T04:39:36.802Z,96493.52
2023-11-25T04:42:17.842Z,96498.41
2023-11-25T04:44:58.746Z,96502.00
2023-11-25T04:47:40.080Z,96508.64
2023-11-25T04:50:22.740Z,96508.31
2023-11-25T04:53:10.723Z,96511.12
2023-11-25T04:55:51.745Z,96513.64
2023-11-25T04:58:39.815Z,96514.95
2023-11-25T05:01:14.793Z,96518.05
2023-11-25T05:04:02.727Z,96524.29
2023-11-25T05:06:37.891Z,96522.73
2023-11-25T05:09:26.750Z,96521.14
2023-11-25T05:12:01.178Z,96525.01
2023-11-25T05:14:48.811Z,96531.27
2023-11-25T05:17:29.818Z,96529.70
2023-11-25T05:20:17.919Z,96534.63
2023-11-25T05:22:59.724Z,96537.36
2023-11-25T05:25:47.790Z,96540.16
2023-11-25T05:28:23.648Z,96546.81
2023-11-25T05:31:11.783Z,96550.87
2023-11-25T05:33:52.714Z,96553.46
2023-11-25T05:36:34.277Z,96568.63
2023-11-25T05:39:22.691Z,96578.95
2023-11-25T05:41:56.880Z,96584.29
2023-11-25T05:44:44.715Z,96590.11
2023-11-25T05:47:19.844Z,96600.90
2023-11-25T05:50:07.781Z,96605.53
2023-11-25T05:52:43.073Z,96609.45
2023-11-25T05:55:30.791Z,96608.67
2023-11-25T05:58:05.857Z,96608.95
2023-11-25T06:00:53.835Z,96613.66
2023-11-25T06:03:35.990Z,96616.13
2023-11-25T06:06:31.702Z,96617.73
2023-11-25T06:09:19.727Z,96621.27
2023-11-25T06:11:55.051Z,96624.60
2023-11-25T06:14:44.807Z,96633.17
2023-11-25T06:17:32.786Z,96638.52
2023-11-25T06:20:08.377Z,96639.88
2023-11-25T06:22:57.703Z,96649.08
2023-11-25T06:25:32.101Z,96654.83
2023-11-25T06:28:20.754Z,96660.17
2023-11-25T06:31:04.777Z,96669.13
2023-11-25T06:33:47.881Z,96668.91
2023-11-25T06:36:28.725Z,96673.30
2023-11-25T06:39:12.540Z,96681.43
2023-11-25T06:41:56.732Z,96684.13
2023-11-25T06:44:44.684Z,96687.05
2023-11-25T06:47:25.835Z,96689.36
2023-11-25T06:50:20.685Z,96695.29
2023-11-25T06:53:08.668Z,96701.99
2023-11-25T06:55:52.816Z,96708.89
2023-11-25T06:58:47.791Z,96710.46
2023-11-25T07:01:35.803Z,96710.65
2023-11-25T07:04:17.696Z,96716.40
2023-11-25T07:07:05.710Z,96713.66
2023-11-25T07:09:48.731Z,96716.05
2023-11-25T07:12:43.761Z,96722.98
2023-11-25T07:15:31.833Z,96728.20
2023-11-25T07:18:08.207Z,96737.11
2023-11-25T07:20:56.789Z,96743.81
2023-11-25T07:23:31.809Z,96742.97
2023-11-25T07:26:22.699Z,96747.99
2023-11-25T07:28:57.848Z,96756.06
2023-11-25T07:31:45.679Z,96759.95
2023-11-25T07:34:26.923Z,96765.00
2023-11-25T07:37:08.812Z,96766.46
2023-11-25T07:39:50.369Z,96761.34
2023-11-25T07:42:31.684Z,96762.73
2023-11-25T07:45:13.862Z,96763.20
2023-11-25T07:47:55.823Z,96766.15
2023-11-25T07:50:47.045Z,96768.50
2023-11-25T07:53:44.689Z,96770.39
2023-11-25T07:56:32.693Z,96773.19
2023-11-25T07:59:08.420Z,96776.67
2023-11-25T08:01:56.746Z,96785.44
2023-11-25T08:04:31.822Z,96792.98
2023-11-25T08:07:19.709Z,96797.17
2023-11-25T08:10:01.816Z,96803.91
2023-11-25T08:12:58.501Z,96809.13
2023-11-25T08:15:48.690Z,96815.41
2023-11-25T08:18:24.748Z,96821.89
2023-11-25T08:21:12.685Z,96825.08
2023-11-25T08:23:47.865Z,96834.48
2023-11-25T08:26:36.687Z,96844.95
2023-11-25T08:29:19.749Z,96852.28
2023-11-25T08:32:15.824Z,96853.64
2023-11-25T08:35:03.764Z,96859.27
2023-11-25T08:37:40.605Z,96868.26
2023-11-25T08:40:29.704Z,96876.09
2023-11-25T08:43:10.160Z,96882.92
2023-11-25T08:46:02.641Z,96888.23
2023-11-25T08:48:38.308Z,96893.23
2023-11-25T08:51:26.680Z,96898.94
2023-11-25T08:54:01.857Z,96900.50
2023-11-25T08:56:52.697Z,96908.16
2023-11-25T08:59:34.591Z,96913.66
2023-11-25T09:02:21.454Z,96919.80
2023-11-25T09:05:09.346Z,96921.96
2023-11-25T09:07:54.094Z,96926.81
2023-11-25T09:10:36.506Z,96923.45
2023-11-25T09:13:19.229Z,96918.09
2023-11-25T09:16:07.704Z,96925.27
2023-11-25T09:18:50.326Z,96921.68
2023-11-25T09:21:31.778Z,96923.28
2023-11-25T09:24:13.670Z,96923.54
2023-11-25T09:27:02.674Z,96928.95
2023-11-25T09:29:44.697Z,96936.45
2023-11-25T09:32:35.693Z,96926.98
2023-11-25T09:35:20.676Z,96938.33
2023-11-25T09:38:08.689Z,96938.02
2023-11-25T09:40:43.128Z,96937.23
2023-11-25T09:43:31.950Z,96936.21
2023-11-25T09:46:22.020Z,96935.00
2023-11-25T09:49:10.049Z,96937.71
2023-11-25T09:51:52.084Z,96942.17
2023-11-25T09:54:46.665Z,96950.31
2023-11-25T09:57:40.666Z,96938.44
2023-11-25T10:00:19.661Z,96936.27
2023-11-25T10:03:09.876Z,96932.35
2023-11-25T10:05:44.984Z,96933.17
2023-11-25T10:08:34.092Z,96929.64
2023-11-25T10:11:16.157Z,96923.90
2023-11-25T10:14:03.727Z,96914.77
2023-11-25T10:16:38.970Z,96918.60
2023-11-25T10:19:30.692Z,96917.61
2023-11-25T10:22:12.681Z,96920.04
2023-11-25T10:25:01.653Z,96927.45
2023-11-25T10:27:36.785Z,96924.37
2023-11-25T10:30:24.678Z,96928.31
2023-11-25T10:33:09.655Z,96928.62
2023-11-25T10:35:58.654Z,96933.50
2023-11-25T10:38:41.700Z,96943.16
2023-11-25T10:41:36.671Z,96943.83
2023-11-25T10:44:25.658Z,96948.15
2023-11-25T10:47:01.437Z,96953.41
2023-11-25T10:49:52.044Z,96954.55
2023-11-25T10:52:50.061Z,96962.58
2023-11-25T10:55:40.703Z,96959.89
2023-11-25T10:58:23.672Z,96960.19
2023-11-25T11:01:11.717Z,96963.88
2023-11-25T11:04:04.156Z,96959.58
2023-11-25T11:06:56.693Z,96961.41
2023-11-25T11:09:38.849Z,96965.48
2023-11-25T11:12:46.641Z,96967.66
2023-11-25T11:15:30.657Z,96965.12
2023-11-25T11:18:34.696Z,96971.38
2023-11-25T11:21:22.670Z,96970.17
2023-11-25T11:23:57.815Z,96973.85
2023-11-25T11:27:21.703Z,96975.50
2023-11-25T11:30:01.828Z,96972.30
2023-11-25T11:32:56.160Z,96979.47
2023-11-25T11:35:45.044Z,96985.61
2023-11-25T11:38:36.661Z,96985.85
2023-11-25T11:41:24.238Z,96985.89
2023-11-25T11:44:23.685Z,96981.48
2023-11-25T11:47:12.667Z,96979.91
2023-11-25T11:49:47.990Z,96978.64
2023-11-25T11:52:35.629Z,96979.98
2023-11-25T11:55:55.771Z,96977.30
2023-11-25T11:58:50.655Z,96974.77
2023-11-25T12:01:38.744Z,96973.84
2023-11-25T12:04:13.803Z,96972.16
2023-11-25T12:07:03.674Z,96968.70
2023-11-25T12:09:45.989Z,96976.86
2023-11-25T12:12:42.646Z,96974.58
2023-11-25T12:15:38.647Z,96981.11
2023-11-25T12:18:26.633Z,96987.48
2023-11-25T12:21:07.886Z,96990.16
2023-11-25T12:23:55.635Z,96989.09
2023-11-25T12:26:37.517Z,96993.42
2023-11-25T12:29:27.628Z,96984.27
2023-11-25T12:32:02.901Z,96978.09
2023-11-25T12:34:52.659Z,96972.27
2023-11-25T12:37:29.753Z,96969.25
2023-11-25T12:40:26.682Z,96966.97
2023-11-25T12:43:10.646Z,96960.95
2023-11-25T12:46:06.257Z,96966.67
2023-11-25T12:48:54.640Z,96963.35
2023-11-25T12:51:36.659Z,96963.69
2023-11-25T12:54:24.993Z,96958.59
2023-11-25T12:57:09.073Z,96960.30
2023-11-25T13:00:05.276Z,96961.36
2023-11-25T13:02:56.969Z,96960.20
2023-11-25T13:05:32.376Z,96958.83
2023-11-25T13:08:30.628Z,96954.81
2023-11-25T13:11:09.987Z,96951.43
2023-11-25T13:13:57.685Z,96950.48
2023-11-25T13:16:39.717Z,96950.11
2023-11-25T13:19:29.636Z,96948.62
2023-11-25T13:22:04.763Z,96954.34
2023-11-25T13:24:53.644Z,96955.80
2023-11-25T13:27:28.751Z,96955.40
2023-11-25T13:30:18.646Z,96953.65
2023-11-25T13:33:02.002Z,96961.79
2023-11-25T13:35:46.974Z,96958.59
2023-11-25T13:38:29.174Z,96957.42
2023-11-25T13:41:16.880Z,96960.92
2023-11-25T13:43:52.782Z,96960.89
2023-11-25T13:46:40.724Z,96961.83
2023-11-25T13:49:22.619Z,96959.84
2023-11-25T13:52:10.766Z,96960.80
2023-11-25T13:54:51.610Z,96962.47
2023-11-25T13:57:32.744Z,96959.92
2023-11-25T14:00:17.625Z,96970.30
2023-11-25T14:03:01.333Z,96975.04
2023-11-25T14:05:49.621Z,96987.35
2023-11-25T14:08:30.756Z,96992.56
2023-11-25T14:11:14.646Z,96996.13
2023-11-25T14:13:57.735Z,96994.16
2023-11-25T14:16:40.146Z,97003.36
2023-11-25T14:19:22.788Z,97007.85
2023-11-25T14:22:03.604Z,97008.01
2023-11-25T14:24:44.795Z,97016.52
2023-11-25T14:27:25.624Z,97012.81
2023-11-25T14:30:07.890Z,97017.81
2023-11-25T14:32:48.964Z,97015.06
2023-11-25T14:35:39.108Z,97018.51
2023-11-25T14:38:13.987Z,97021.39
2023-11-25T14:41:01.688Z,97021.81
2023-11-25T14:43:43.450Z,97020.39
2023-11-25T14:46:24.706Z,97018.21
2023-11-25T14:49:06.421Z,97023.08
2023-11-25T14:51:48.626Z,97022.70
2023-11-25T14:54:30.953Z,97027.52
2023-11-25T14:57:14.654Z,97024.35
2023-11-25T14:59:55.810Z,97027.78
2023-11-25T15:02:37.096Z,97030.77
2023-11-25T15:05:18.972Z,97037.70
2023-11-25T15:08:01.645Z,97039.39
2023-11-25T15:10:51.667Z,97045.56
2023-11-25T15:13:35.613Z,97043.33
2023-11-25T15:16:28.635Z,97052.14
2023-11-25T15:19:23.610Z,97053.55
2023-11-25T15:22:12.615Z,97056.38
2023-11-25T15:24:55.612Z,97056.34
2023-11-25T15:27:43.635Z,97058.59
2023-11-25T15:30:26.627Z,97061.71
2023-11-25T15:33:09.008Z,97062.50
2023-11-25T15:35:58.615Z,97067.89
2023-11-25T15:38:39.618Z,97066.88
2023-11-25T15:41:20.803Z,97068.31
2023-11-25T15:44:09.828Z,97069.70
2023-11-25T15:46:45.663Z,97070.78
2023-11-25T15:49:33.634Z,97076.21
2023-11-25T15:52:08.893Z,97080.09
2023-11-25T15:54:57.670Z,97076.53
2023-11-25T15:57:40.690Z,97081.13
2023-11-25T16:00:35.630Z,97084.29
2023-11-25T16:03:24.759Z,97079.98
2023-11-25T16:06:00.237Z,97082.90
2023-11-25T16:08:48.610Z,97081.92
2023-11-25T16:11:24.995Z,97081.75
2023-11-25T16:14:12.917Z,97087.54
2023-11-25T16:16:49.525Z,97092.77
2023-11-25T16:19:37.765Z,97096.39
2023-11-25T16:22:25.787Z,97092.41
2023-11-25T16:25:07.707Z,97095.86
2023-11-25T16:27:59.613Z,97094.80
2023-11-25T16:30:35.497Z,97097.45
2023-11-25T16:33:24.644Z,97097.33
2023-11-25T16:36:19.594Z,97099.33
2023-11-25T16:39:07.599Z,97100.61
2023-11-25T16:41:43.496Z,97107.45
2023-11-25T16:44:31.591Z,97108.25
2023-11-25T16:47:07.818Z,97110.24
2023-11-25T16:49:56.161Z,97107.93
2023-11-25T16:52:38.700Z,97104.77
2023-11-25T16:55:33.639Z,97111.02
2023-11-25T16:58:21.621Z,97108.77
2023-11-25T17:00:57.828Z,97108.15
2023-11-25T17:03:46.524Z,97108.77
2023-11-25T17:06:21.749Z,97107.42
2023-11-25T17:09:09.603Z,97111.58
2023-11-25T17:11:49.766Z,97110.26
2023-11-25T17:14:37.610Z,97111.77
2023-11-25T17:17:14.422Z,97111.65
2023-11-25T17:20:04.655Z,97111.95
2023-11-25T17:22:45.785Z,97112.27
2023-11-25T17:25:33.937Z,97116.09
2023-11-25T17:28:18.055Z,97119.00
2023-11-25T17:31:12.701Z,97121.76
2023-11-25T17:34:01.616Z,97121.48
2023-11-25T17:36:36.726Z,97121.92
2023-11-25T17:39:25.616Z,97124.77
2023-11-25T17:42:00.731Z,97128.77
2023-11-25T17:44:48.684Z,97127.84
2023-11-25T17:47:23.794Z,97131.95
2023-11-25T17:50:18.172Z,97135.83
2023-11-25T17:53:06.557Z,97135.34
2023-11-25T17:55:59.699Z,97135.66
2023-11-25T17:58:35.885Z,97134.05
2023-11-25T18:01:23.593Z,97132.91
2023-11-25T18:03:58.826Z,97133.19
2023-11-25T18:06:46.599Z,97131.23
2023-11-25T18:09:22.445Z,97128.52
2023-11-25T18:12:16.753Z,97128.44
2023-11-25T18:14:51.883Z,97126.57
2023-11-25T18:17:39.940Z,97127.10
2023-11-25T18:20:22.591Z,97125.22
2023-11-25T18:23:04.040Z,97124.30
2023-11-25T18:25:52.651Z,97125.62
2023-11-25T18:28:33.595Z,97128.13
2023-11-25T18:31:18.226Z,97128.92
2023-11-25T18:33:59.587Z,97128.33
2023-11-25T18:36:41.710Z,97126.89
2023-11-25T18:39:29.606Z,97124.55
2023-11-25T18:42:05.219Z,97129.24
2023-11-25T18:44:54.602Z,97129.00
2023-11-25T18:47:29.871Z,97130.70
2023-11-25T18:50:17.678Z,97128.91
2023-11-25T18:52:52.889Z,97128.91
2023-11-25T18:55:41.117Z,97128.63
2023-11-25T18:58:15.757Z,97135.70
2023-11-25T19:01:03.636Z,97139.23
2023-11-25T19:03:45.683Z,97139.96
2023-11-25T19:06:40.848Z,97138.80
2023-11-25T19:09:28.592Z,97146.70
2023-11-25T19:12:04.977Z,97147.90
2023-11-25T19:14:53.578Z,97147.45
2023-11-25T19:17:31.226Z,97148.21
2023-11-25T19:20:21.671Z,97146.23
2023-11-25T19:22:56.779Z,97144.65
2023-11-25T19:25:44.632Z,97144.38
2023-11-25T19:28:22.994Z,97142.44
2023-11-25T19:31:12.603Z,97147.71
2023-11-25T19:33:48.351Z,97150.23
2023-11-25T19:36:36.793Z,97150.95
2023-11-25T19:39:13.402Z,97151.25
2023-11-25T19:42:03.723Z,97154.20
2023-11-25T19:44:46.912Z,97146.80
2023-11-25T19:47:41.857Z,97145.20
2023-11-25T19:50:29.717Z,97145.55
2023-11-25T19:53:13.111Z,97145.92
2023-11-25T19:56:01.845Z,97151.20
2023-11-25T19:58:45.992Z,97151.70
2023-11-25T20:01:34.700Z,97147.71
2023-11-25T20:04:09.838Z,97143.75
2023-11-25T20:06:57.575Z,97139.33
2023-11-25T20:09:32.905Z,97141.09
2023-11-25T20:12:21.457Z,97141.29
2023-11-25T20:15:05.671Z,97139.45
2023-11-25T20:17:46.992Z,97143.13
2023-11-25T20:20:38.103Z,97143.35
2023-11-25T20:23:14.838Z,97144.98
2023-11-25T20:26:02.597Z,97142.46
2023-11-25T20:28:37.064Z,97143.04
2023-11-25T20:31:24.567Z,97146.69
2023-11-25T20:33:59.711Z,97151.02
2023-11-25T20:36:48.020Z,97155.05
2023-11-25T20:39:43.777Z,97153.80
2023-11-25T20:42:31.845Z,97149.41
2023-11-25T20:45:06.857Z,97148.93
2023-11-25T20:47:54.560Z,97155.44
2023-11-25T20:50:30.206Z,97149.48
2023-11-25T20:53:26.000Z,97150.06
2023-11-25T20:56:21.740Z,97154.13
2023-11-25T20:59:10.653Z,97148.73
2023-11-25T21:01:45.989Z,97148.17
2023-11-25T21:04:36.997Z,97153.48
2023-11-25T21:07:12.761Z,97151.84
2023-11-25T21:10:00.567Z,97146.14
2023-11-25T21:12:42.713Z,97151.34
2023-11-25T21:15:37.308Z,97150.98
2023-11-25T21:18:12.737Z,97151.81
2023-11-25T21:21:01.544Z,97154.41
2023-11-25T21:23:43.563Z,97156.09
2023-11-25T21:26:42.246Z,97159.76
2023-11-25T21:29:16.804Z,97161.53
2023-11-25T21:32:05.662Z,97163.11
2023-11-25T21:34:47.664Z,97164.95
2023-11-25T21:37:35.554Z,97169.58
2023-11-25T21:40:23.538Z,97168.66
2023-11-25T21:43:05.526Z,97169.65
2023-11-25T21:46:00.583Z,97171.56
2023-11-25T21:48:49.670Z,97172.64
2023-11-25T21:51:31.529Z,97175.98
2023-11-25T21:54:34.052Z,97169.86
2023-11-25T21:57:21.538Z,97171.59
2023-11-25T21:59:56.672Z,97173.77
2023-11-25T22:02:44.831Z,97173.54
2023-11-25T22:05:26.544Z,97174.42
2023-11-25T22:08:14.550Z,97169.36
2023-11-25T22:10:49.829Z,97167.13
2023-11-25T22:13:38.551Z,97168.09
2023-11-25T22:16:14.317Z,97160.16
2023-11-25T22:19:03.296Z,97162.48
2023-11-25T22:21:40.568Z,97159.79
2023-11-25T22:24:31.571Z,97158.94
2023-11-25T22:27:24.683Z,97156.36
2023-11-25T22:30:19.691Z,97159.05
2023-11-25T22:32:54.855Z,97158.77
2023-11-25T22:35:50.618Z,97156.29
2023-11-25T22:38:39.249Z,97156.10
2023-11-25T22:41:29.238Z,97155.55
2023-11-25T22:44:05.127Z,97156.67
2023-11-25T22:46:53.575Z,97158.04
2023-11-25T22:49:35.517Z,97150.77
2023-11-25T22:52:30.531Z,97152.44
2023-11-25T22:55:18.530Z,97149.83
2023-11-25T22:58:01.281Z,97153.59
2023-11-25T23:00:59.552Z,97153.29
2023-11-25T23:03:34.989Z,97153.62
2023-11-25T23:06:22.509Z,97153.00
2023-11-25T23:08:59.065Z,97154.55
2023-11-25T23:11:47.011Z,97149.73
2023-11-25T23:14:29.265Z,97146.05
2023-11-25T23:17:13.600Z,97149.34
2023-11-25T23:19:54.656Z,97150.63
2023-11-25T23:22:35.512Z,97150.71
2023-11-25T23:25:23.522Z,97151.31
2023-11-25T23:27:58.609Z,97155.46
2023-11-25T23:30:46.547Z,97152.46
2023-11-25T23:33:20.994Z,97152.13
2023-11-25T23:36:08.515Z,97153.02
2023-11-25T23:38:42.899Z,97150.71
2023-11-25T23:41:30.495Z,97149.38
2023-11-25T23:44:05.339Z,97145.40
2023-11-25T23:46:53.525Z,97146.09
2023-11-25T23:49:34.514Z,97144.13
2023-11-25T23:52:29.516Z,97143.23
2023-11-25T23:55:17.495Z,97140.85
2023-11-25T23:57:52.662Z,97135.36
